createdAt,value
2023-01-26T00:01:09.369Z,38.54
2023-01-26T00:03:36.275Z,38.67
2023-01-26T00:06:03.777Z,38.70
2023-01-26T00:08:30.544Z,38.53
2023-01-26T00:10:57.534Z,38.89
2023-01-26T00:13:25.058Z,38.44
2023-01-26T00:15:52.414Z,38.89
2023-01-26T00:18:19.468Z,38.57
2023-01-26T00:20:46.318Z,38.76
2023-01-26T00:23:13.602Z,38.63
2023-01-26T00:25:40.689Z,38.59
2023-01-26T00:28:08.454Z,38.89
2023-01-26T00:30:35.572Z,38.61
2023-01-26T00:33:02.305Z,38.79
2023-01-26T00:35:29.334Z,39.00
2023-01-26T00:37:56.455Z,38.67
2023-01-26T00:40:23.569Z,38.93
2023-01-26T00:42:50.289Z,38.76
2023-01-26T00:45:17.359Z,38.73
2023-01-26T00:47:45.117Z,39.18
2023-01-26T00:50:15.085Z,39.11
2023-01-26T00:52:41.889Z,38.93
2023-01-26T00:55:08.945Z,39.33
2023-01-26T00:57:36.060Z,39.09
2023-01-26T01:00:03.006Z,39.03
2023-01-26T01:02:29.832Z,39.43
2023-01-26T01:04:58.762Z,39.64
2023-01-26T01:07:27.884Z,39.24
2023-01-26T01:09:54.978Z,39.38
2023-01-26T01:12:21.899Z,39.57
2023-01-26T01:14:49.158Z,39.68
2023-01-26T01:17:16.074Z,39.77
2023-01-26T01:19:42.767Z,39.74
2023-01-26T01:22:09.455Z,39.98
2023-01-26T01:24:38.048Z,39.79
2023-01-26T01:27:04.932Z,39.88
2023-01-26T01:29:32.136Z,39.85
2023-01-26T01:31:59.107Z,40.10
2023-01-26T01:34:25.887Z,39.61
2023-01-26T01:36:52.928Z,39.77
2023-01-26T01:39:21.832Z,39.74
2023-01-26T01:41:48.909Z,39.82
2023-01-26T01:44:19.026Z,39.75
2023-01-26T01:46:48.981Z,39.63
2023-01-26T01:49:18.859Z,39.67
2023-01-26T01:51:51.417Z,39.61
2023-01-26T01:54:22.213Z,39.70
2023-01-26T01:56:51.745Z,39.66
2023-01-26T01:59:22.285Z,39.90
2023-01-26T02:01:50.675Z,39.85
2023-01-26T02:04:17.804Z,40.13
2023-01-26T02:06:48.467Z,39.85
2023-01-26T02:09:37.167Z,39.76
2023-01-26T02:12:06.049Z,40.11
2023-01-26T02:14:33.865Z,39.82
2023-01-26T02:17:00.900Z,39.79
2023-01-26T02:19:31.184Z,40.20
2023-01-26T02:22:01.258Z,40.04
2023-01-26T02:24:35.215Z,39.99
2023-01-26T02:27:03.254Z,39.84
2023-01-26T02:29:32.779Z,40.19
2023-01-26T02:31:59.633Z,40.20
2023-01-26T02:34:29.046Z,40.29
2023-01-26T02:36:56.928Z,40.38
2023-01-26T02:39:26.802Z,40.15
2023-01-26T02:41:58.014Z,40.17
2023-01-26T02:44:25.993Z,40.46
2023-01-26T02:46:53.578Z,40.34
2023-01-26T02:49:23.564Z,40.14
2023-01-26T02:51:51.403Z,40.55
2023-01-26T02:54:22.634Z,40.58
2023-01-26T02:56:49.568Z,40.52
2023-01-26T02:59:18.701Z,40.31
2023-01-26T03:01:45.772Z,40.45
2023-01-26T03:04:12.494Z,40.65
2023-01-26T03:06:39.245Z,40.58
2023-01-26T03:09:05.949Z,40.83
2023-01-26T03:11:42.405Z,40.70
2023-01-26T03:14:11.144Z,40.66
2023-01-26T03:16:38.289Z,40.47
2023-01-26T03:19:09.083Z,40.85
2023-01-26T03:21:39.250Z,40.67
2023-01-26T03:24:09.465Z,40.93
2023-01-26T03:26:39.923Z,40.69
2023-01-26T03:29:06.851Z,40.66
2023-01-26T03:31:34.061Z,40.75
2023-01-26T03:34:00.898Z,41.11
2023-01-26T03:36:28.148Z,41.27
2023-01-26T03:38:54.864Z,41.55
2023-01-26T03:41:24.738Z,41.15
2023-01-26T03:43:54.816Z,41.36
2023-01-26T03:46:24.813Z,40.89
2023-01-26T03:48:54.740Z,40.91
2023-01-26T03:51:25.091Z,40.80
2023-01-26T03:53:55.013Z,41.20
2023-01-26T03:56:24.560Z,41.20
2023-01-26T03:58:54.166Z,40.83
2023-01-26T04:01:26.518Z,41.02
2023-01-26T04:03:58.066Z,41.03
2023-01-26T04:06:30.683Z,41.13
2023-01-26T04:08:57.438Z,41.46
2023-01-26T04:11:24.737Z,41.12
2023-01-26T04:13:54.820Z,41.29
2023-01-26T04:16:24.610Z,41.12
2023-01-26T04:18:54.876Z,41.13
2023-01-26T04:21:25.818Z,41.19
2023-01-26T04:23:56.708Z,41.19
2023-01-26T04:26:25.647Z,41.27
2023-01-26T04:28:52.779Z,41.30
2023-01-26T04:31:19.574Z,41.19
2023-01-26T04:33:47.006Z,41.26
2023-01-26T04:36:15.243Z,41.57
2023-01-26T04:38:42.141Z,41.55
2023-01-26T04:41:09.969Z,41.85
2023-01-26T04:43:36.988Z,42.01
2023-01-26T04:46:06.902Z,41.64
2023-01-26T04:48:33.798Z,41.93
2023-01-26T04:51:02.857Z,42.08
2023-01-26T04:53:29.713Z,42.13
2023-01-26T04:55:56.522Z,41.96
2023-01-26T04:58:24.600Z,42.17
2023-01-26T05:00:53.241Z,42.53
2023-01-26T05:03:20.353Z,42.26
2023-01-26T05:05:51.188Z,42.15
2023-01-26T05:08:19.114Z,42.18
2023-01-26T05:10:46.793Z,42.34
2023-01-26T05:13:14.688Z,42.60
2023-01-26T05:15:42.816Z,42.37
2023-01-26T05:18:10.132Z,42.91
2023-01-26T05:20:36.943Z,42.60
2023-01-26T05:23:03.898Z,42.94
2023-01-26T05:25:30.689Z,43.37
2023-01-26T05:27:57.665Z,43.27
2023-01-26T05:30:24.454Z,43.95
2023-01-26T05:32:51.443Z,44.24
2023-01-26T05:35:18.870Z,44.05
2023-01-26T05:37:46.092Z,44.11
2023-01-26T05:40:13.850Z,44.00
2023-01-26T05:42:42.381Z,44.23
2023-01-26T05:45:09.861Z,44.13
2023-01-26T05:47:36.738Z,44.09
2023-01-26T05:50:03.750Z,44.24
2023-01-26T05:52:30.524Z,44.05
2023-01-26T05:54:57.512Z,44.04
2023-01-26T05:57:24.288Z,44.17
2023-01-26T05:59:51.884Z,43.74
2023-01-26T06:02:18.896Z,43.84
2023-01-26T06:04:45.892Z,43.78
2023-01-26T06:07:15.866Z,43.38
2023-01-26T06:09:42.548Z,43.54
2023-01-26T06:12:16.529Z,43.61
2023-01-26T06:14:47.302Z,43.45
2023-01-26T06:17:15.440Z,43.46
2023-01-26T06:19:42.864Z,43.26
2023-01-26T06:22:11.733Z,42.90
2023-01-26T06:24:38.716Z,42.83
2023-01-26T06:27:07.759Z,43.24
2023-01-26T06:29:34.612Z,43.26
2023-01-26T06:32:04.228Z,43.01
2023-01-26T06:34:31.243Z,42.75
2023-01-26T06:36:58.325Z,42.69
2023-01-26T06:39:25.272Z,42.77
2023-01-26T06:41:52.087Z,42.58
2023-01-26T06:44:19.077Z,42.16
2023-01-26T06:46:46.538Z,42.25
2023-01-26T06:49:14.208Z,42.31
2023-01-26T06:51:41.649Z,41.91
2023-01-26T06:54:11.187Z,41.79
2023-01-26T06:56:38.059Z,41.96
2023-01-26T06:59:05.972Z,41.80
2023-01-26T07:01:35.159Z,41.90
2023-01-26T07:04:02.399Z,41.45
2023-01-26T07:06:30.323Z,41.85
2023-01-26T07:08:57.153Z,41.66
2023-01-26T07:11:25.783Z,41.30
2023-01-26T07:13:52.623Z,41.58
2023-01-26T07:16:20.044Z,41.30
2023-01-26T07:18:48.090Z,41.53
2023-01-26T07:21:19.179Z,41.37
2023-01-26T07:23:46.603Z,41.44
2023-01-26T07:26:14.322Z,41.16
2023-01-26T07:28:41.230Z,41.18
2023-01-26T07:31:08.768Z,40.62
2023-01-26T07:33:35.909Z,40.80
2023-01-26T07:36:02.969Z,40.68
2023-01-26T07:38:30.389Z,40.72
2023-01-26T07:40:57.666Z,40.65
2023-01-26T07:43:24.947Z,40.05
2023-01-26T07:45:53.768Z,40.39
2023-01-26T07:48:22.113Z,40.30
2023-01-26T07:50:49.867Z,39.29
2023-01-26T07:53:21.432Z,38.86
2023-01-26T07:55:49.627Z,38.63
2023-01-26T07:58:19.554Z,38.51
2023-01-26T08:00:47.602Z,37.55
2023-01-26T08:03:14.673Z,38.10
2023-01-26T08:05:43.735Z,37.98
2023-01-26T08:08:12.301Z,37.76
2023-01-26T08:10:40.172Z,37.74
2023-01-26T08:13:07.307Z,38.08
2023-01-26T08:15:34.689Z,37.69
2023-01-26T08:18:04.784Z,37.81
2023-01-26T08:20:33.707Z,37.84
2023-01-26T08:23:03.010Z,38.20
2023-01-26T08:25:30.093Z,37.91
2023-01-26T08:27:58.159Z,37.85
2023-01-26T08:30:25.220Z,38.04
2023-01-26T08:32:52.181Z,38.51
2023-01-26T08:35:19.198Z,38.19
2023-01-26T08:37:46.403Z,38.26
2023-01-26T08:40:14.566Z,38.12
2023-01-26T08:42:41.657Z,38.50
2023-01-26T08:45:12.025Z,38.12
2023-01-26T08:47:39.382Z,38.05
2023-01-26T08:50:06.399Z,38.46
2023-01-26T08:52:33.943Z,38.32
2023-01-26T08:55:01.384Z,38.16
2023-01-26T08:57:28.668Z,38.02
2023-01-26T08:59:56.178Z,38.09
2023-01-26T09:02:23.776Z,37.75
2023-01-26T09:04:50.973Z,37.83
2023-01-26T09:07:18.323Z,38.10
2023-01-26T09:09:45.868Z,38.18
2023-01-26T09:12:13.496Z,38.18
2023-01-26T09:14:42.094Z,38.10
2023-01-26T09:17:11.679Z,37.78
2023-01-26T09:19:39.362Z,37.63
2023-01-26T09:22:06.601Z,37.73
2023-01-26T09:24:33.534Z,37.90
2023-01-26T09:27:00.791Z,37.35
2023-01-26T09:29:29.079Z,37.59
2023-01-26T09:31:56.470Z,37.86
2023-01-26T09:34:26.243Z,37.84
2023-01-26T09:36:53.295Z,39.01
2023-01-26T09:39:22.351Z,38.95
2023-01-26T09:41:56.577Z,39.06
2023-01-26T09:44:25.412Z,39.13
2023-01-26T09:46:55.930Z,38.86
2023-01-26T09:49:26.449Z,38.75
2023-01-26T09:52:00.552Z,38.74
2023-01-26T09:54:28.412Z,38.71
2023-01-26T09:56:56.073Z,38.92
2023-01-26T09:59:26.416Z,38.53
2023-01-26T10:01:59.631Z,38.81
2023-01-26T10:04:33.979Z,38.61
2023-01-26T10:07:03.044Z,38.53
2023-01-26T10:09:33.472Z,38.50
2023-01-26T10:12:06.168Z,38.33
2023-01-26T10:14:36.336Z,38.46
2023-01-26T10:17:08.627Z,38.41
2023-01-26T10:19:42.268Z,38.24
2023-01-26T10:22:15.164Z,38.71
2023-01-26T10:24:44.317Z,38.63
2023-01-26T10:27:14.802Z,38.76
2023-01-26T10:29:41.875Z,38.43
2023-01-26T10:32:14.872Z,38.41
2023-01-26T10:34:42.875Z,38.51
2023-01-26T10:37:13.378Z,38.93
2023-01-26T10:39:57.263Z,38.80
2023-01-26T10:42:27.054Z,38.61
2023-01-26T10:44:54.581Z,38.87
2023-01-26T10:47:23.663Z,38.59
2023-01-26T10:49:50.879Z,38.94
2023-01-26T10:52:19.569Z,38.78
2023-01-26T10:54:47.345Z,39.24
2023-01-26T10:57:16.744Z,38.91
2023-01-26T10:59:48.440Z,38.77
2023-01-26T11:02:16.649Z,38.88
2023-01-26T11:04:46.887Z,39.23
2023-01-26T11:07:25.708Z,39.27
2023-01-26T11:09:53.598Z,38.92
2023-01-26T11:12:22.103Z,38.86
2023-01-26T11:14:53.857Z,39.19
2023-01-26T11:17:23.962Z,39.18
2023-01-26T11:19:56.250Z,38.98
2023-01-26T11:22:26.928Z,39.26
2023-01-26T11:25:01.251Z,39.46
2023-01-26T11:27:31.553Z,39.14
2023-01-26T11:30:07.731Z,39.25
2023-01-26T11:32:46.931Z,39.04
2023-01-26T11:35:23.919Z,39.17
2023-01-26T11:38:00.664Z,39.46
2023-01-26T11:40:35.462Z,39.15
2023-01-26T11:43:13.843Z,39.62
2023-01-26T11:45:49.995Z,39.30
2023-01-26T11:48:26.859Z,39.65
2023-01-26T11:50:55.350Z,39.42
2023-01-26T11:53:38.829Z,39.39
2023-01-26T11:56:07.058Z,39.46
2023-01-26T11:58:38.898Z,39.40
2023-01-26T12:01:15.771Z,39.78
2023-01-26T12:03:46.993Z,39.85
2023-01-26T12:06:18.034Z,39.85
2023-01-26T12:08:50.558Z,39.54
2023-01-26T12:11:24.423Z,39.84
2023-01-26T12:13:54.598Z,39.80
2023-01-26T12:16:26.770Z,39.55
2023-01-26T12:19:10.806Z,39.83
2023-01-26T12:21:39.548Z,39.73
2023-01-26T12:24:26.552Z,39.73
2023-01-26T12:26:56.893Z,39.78
2023-01-26T12:29:29.123Z,39.51
2023-01-26T12:32:01.317Z,39.54
2023-01-26T12:34:30.249Z,39.63
2023-01-26T12:36:58.983Z,39.38
2023-01-26T12:39:34.665Z,39.30
2023-01-26T12:42:10.881Z,39.39
2023-01-26T12:44:38.002Z,39.17
2023-01-26T12:47:14.957Z,39.61
2023-01-26T12:49:48.931Z,39.08
2023-01-26T12:52:21.343Z,39.26
2023-01-26T12:54:53.561Z,39.15
2023-01-26T12:57:22.559Z,38.90
2023-01-26T12:59:50.333Z,39.27
2023-01-26T13:02:18.249Z,38.98
2023-01-26T13:04:48.894Z,39.15
2023-01-26T13:07:34.503Z,38.90
2023-01-26T13:10:09.171Z,39.29
2023-01-26T13:12:45.866Z,39.01
2023-01-26T13:15:14.880Z,39.17
2023-01-26T13:17:43.208Z,39.13
2023-01-26T13:20:19.638Z,38.63
2023-01-26T13:22:48.098Z,38.79
2023-01-26T13:25:15.162Z,38.46
2023-01-26T13:27:54.803Z,38.69
2023-01-26T13:30:23.931Z,38.87
2023-01-26T13:32:51.017Z,38.92
2023-01-26T13:35:20.612Z,38.89
2023-01-26T13:37:56.781Z,38.68
2023-01-26T13:40:27.303Z,38.88
2023-01-26T13:43:01.028Z,38.61
2023-01-26T13:45:31.403Z,38.86
2023-01-26T13:47:58.940Z,38.53
2023-01-26T13:50:29.134Z,38.79
2023-01-26T13:52:56.362Z,38.86
2023-01-26T13:55:25.841Z,38.80
2023-01-26T13:58:02.857Z,38.54
2023-01-26T14:00:29.883Z,38.73
2023-01-26T14:02:57.011Z,38.66
2023-01-26T14:05:24.301Z,38.96
2023-01-26T14:07:51.301Z,38.69
2023-01-26T14:10:20.482Z,38.93
2023-01-26T14:12:49.542Z,39.01
2023-01-26T14:15:33.367Z,39.26
2023-01-26T14:18:02.473Z,39.33
2023-01-26T14:20:30.905Z,39.01
2023-01-26T14:23:03.004Z,39.21
2023-01-26T14:25:30.042Z,39.38
2023-01-26T14:27:56.893Z,39.29
2023-01-26T14:30:27.086Z,39.31
2023-01-26T14:32:57.109Z,39.17
2023-01-26T14:35:24.594Z,39.52
2023-01-26T14:38:04.740Z,39.56
2023-01-26T14:40:31.642Z,39.31
2023-01-26T14:42:58.776Z,39.84
2023-01-26T14:45:30.057Z,39.35
2023-01-26T14:47:59.816Z,39.44
2023-01-26T14:50:28.559Z,39.28
2023-01-26T14:52:56.024Z,39.36
2023-01-26T14:55:26.367Z,39.42
2023-01-26T14:57:54.440Z,39.48
2023-01-26T15:00:30.979Z,39.36
2023-01-26T15:02:59.426Z,39.18
2023-01-26T15:05:35.457Z,39.68
2023-01-26T15:08:04.950Z,39.58
2023-01-26T15:10:42.198Z,39.32
2023-01-26T15:13:19.357Z,39.59
2023-01-26T15:15:49.363Z,39.50
2023-01-26T15:18:19.274Z,39.33
2023-01-26T15:21:00.858Z,39.69
2023-01-26T15:23:28.248Z,39.63
2023-01-26T15:25:55.586Z,39.34
2023-01-26T15:28:26.315Z,39.73
2023-01-26T15:30:55.335Z,39.81
2023-01-26T15:33:32.798Z,39.79
2023-01-26T15:35:59.786Z,39.69
2023-01-26T15:38:27.036Z,39.77
2023-01-26T15:40:54.099Z,40.07
2023-01-26T15:43:21.439Z,39.91
2023-01-26T15:45:51.551Z,39.61
2023-01-26T15:48:18.818Z,39.70
2023-01-26T15:50:46.816Z,39.40
2023-01-26T15:53:14.731Z,39.23
2023-01-26T15:55:42.216Z,39.60
2023-01-26T15:58:09.701Z,39.68
2023-01-26T16:00:37.605Z,39.27
2023-01-26T16:03:07.837Z,39.66
2023-01-26T16:05:34.722Z,39.48
2023-01-26T16:08:01.564Z,39.31
2023-01-26T16:10:29.056Z,39.38
2023-01-26T16:12:56.012Z,39.26
2023-01-26T16:15:26.295Z,39.25
2023-01-26T16:17:53.255Z,39.28
2023-01-26T16:20:20.277Z,39.27
2023-01-26T16:22:47.283Z,39.34
2023-01-26T16:25:20.356Z,39.56
2023-01-26T16:27:47.440Z,39.38
2023-01-26T16:30:14.636Z,39.62
2023-01-26T16:32:42.900Z,39.62
2023-01-26T16:35:11.317Z,39.77
2023-01-26T16:37:38.300Z,39.61
2023-01-26T16:40:05.902Z,39.26
2023-01-26T16:42:34.247Z,39.59
2023-01-26T16:45:01.254Z,39.64
2023-01-26T16:47:29.744Z,39.69
2023-01-26T16:49:56.656Z,39.39
2023-01-26T16:52:23.696Z,39.17
2023-01-26T16:54:50.714Z,39.41
2023-01-26T16:57:17.697Z,39.52
2023-01-26T16:59:44.946Z,39.28
2023-01-26T17:02:20.957Z,39.15
2023-01-26T17:04:48.217Z,39.40
2023-01-26T17:07:15.118Z,39.09
2023-01-26T17:09:42.041Z,39.35
2023-01-26T17:12:10.437Z,39.04
2023-01-26T17:14:37.588Z,38.71
2023-01-26T17:17:05.199Z,39.16
2023-01-26T17:19:33.116Z,39.10
2023-01-26T17:22:00.223Z,38.62
2023-01-26T17:24:27.650Z,38.95
2023-01-26T17:26:55.151Z,38.90
2023-01-26T17:29:22.369Z,38.77
2023-01-26T17:31:50.279Z,38.50
2023-01-26T17:34:17.638Z,38.47
2023-01-26T17:36:45.998Z,38.58
2023-01-26T17:39:14.467Z,38.79
2023-01-26T17:41:41.505Z,38.29
2023-01-26T17:44:08.437Z,38.27
2023-01-26T17:46:35.612Z,38.32
2023-01-26T17:49:02.811Z,38.18
2023-01-26T17:51:30.541Z,38.55
2023-01-26T17:53:57.627Z,38.36
2023-01-26T17:56:25.331Z,38.27
2023-01-26T17:58:53.836Z,38.11
2023-01-26T18:01:22.111Z,38.32
2023-01-26T18:03:49.778Z,38.26
2023-01-26T18:06:16.944Z,38.06
2023-01-26T18:08:44.164Z,38.02
2023-01-26T18:11:12.766Z,38.40
2023-01-26T18:13:40.465Z,38.05
2023-01-26T18:16:08.886Z,38.10
2023-01-26T18:18:37.638Z,37.89
2023-01-26T18:21:14.272Z,37.95
2023-01-26T18:23:44.417Z,38.01
2023-01-26T18:26:11.775Z,37.85
2023-01-26T18:28:41.128Z,38.09
2023-01-26T18:31:09.817Z,38.19
2023-01-26T18:33:37.401Z,37.78
2023-01-26T18:36:05.590Z,37.82
2023-01-26T18:38:32.828Z,37.86
2023-01-26T18:41:00.143Z,37.92
2023-01-26T18:43:32.866Z,37.91
2023-01-26T18:46:02.565Z,37.70
2023-01-26T18:48:30.408Z,37.88
2023-01-26T18:50:58.878Z,38.02
2023-01-26T18:53:26.189Z,38.20
2023-01-26T18:56:01.624Z,38.23
2023-01-26T18:58:30.110Z,38.23
2023-01-26T19:01:01.672Z,37.84
2023-01-26T19:03:28.827Z,38.17
2023-01-26T19:05:56.142Z,37.95
2023-01-26T19:08:23.281Z,37.93
2023-01-26T19:10:50.447Z,38.15
2023-01-26T19:13:17.761Z,37.88
2023-01-26T19:15:45.643Z,37.86
2023-01-26T19:18:12.905Z,37.87
2023-01-26T19:20:40.311Z,38.01
2023-01-26T19:23:07.542Z,38.30
2023-01-26T19:25:36.784Z,37.85
2023-01-26T19:28:05.525Z,37.92
2023-01-26T19:30:33.700Z,37.87
2023-01-26T19:33:10.753Z,38.07
2023-01-26T19:35:39.028Z,37.99
2023-01-26T19:38:06.711Z,38.11
2023-01-26T19:40:34.280Z,37.93
2023-01-26T19:43:01.362Z,37.84
2023-01-26T19:45:28.765Z,38.21
2023-01-26T19:47:56.057Z,37.96
2023-01-26T19:50:23.441Z,37.99
2023-01-26T19:52:50.651Z,38.22
2023-01-26T19:55:17.797Z,37.98
2023-01-26T19:57:44.771Z,37.89
2023-01-26T20:00:12.506Z,38.29
2023-01-26T20:02:39.793Z,37.96
2023-01-26T20:05:07.618Z,37.94
2023-01-26T20:07:35.037Z,38.41
2023-01-26T20:10:02.243Z,37.94
2023-01-26T20:12:29.565Z,38.14
2023-01-26T20:14:57.220Z,38.04
2023-01-26T20:17:25.227Z,38.07
2023-01-26T20:19:52.291Z,38.21
2023-01-26T20:22:20.103Z,38.08
2023-01-26T20:24:47.217Z,38.51
2023-01-26T20:27:14.278Z,38.11
2023-01-26T20:29:41.317Z,38.47
2023-01-26T20:32:08.514Z,38.53
2023-01-26T20:34:35.602Z,38.21
2023-01-26T20:37:04.666Z,38.57
2023-01-26T20:39:31.842Z,38.63
2023-01-26T20:41:59.077Z,38.37
2023-01-26T20:44:26.414Z,38.37
2023-01-26T20:46:53.759Z,38.42
2023-01-26T20:49:22.076Z,38.53
2023-01-26T20:51:49.537Z,38.33
2023-01-26T20:54:17.981Z,38.34
2023-01-26T20:56:46.425Z,38.80
2023-01-26T20:59:13.689Z,38.40
2023-01-26T21:01:41.762Z,38.74
2023-01-26T21:04:08.931Z,38.50
2023-01-26T21:06:36.600Z,38.60
2023-01-26T21:09:04.108Z,38.77
2023-01-26T21:11:31.778Z,38.72
2023-01-26T21:14:02.277Z,38.78
2023-01-26T21:16:30.150Z,38.97
2023-01-26T21:18:57.318Z,38.66
2023-01-26T21:21:24.377Z,38.62
2023-01-26T21:23:51.945Z,38.87
2023-01-26T21:26:22.278Z,38.61
2023-01-26T21:28:50.985Z,38.56
2023-01-26T21:31:18.270Z,38.70
2023-01-26T21:33:46.098Z,38.80
2023-01-26T21:36:15.662Z,39.07
2023-01-26T21:38:44.468Z,38.89
2023-01-26T21:41:22.571Z,38.91
2023-01-26T21:43:49.507Z,39.15
2023-01-26T21:46:16.397Z,39.00
2023-01-26T21:48:43.507Z,38.96
2023-01-26T21:51:19.651Z,39.26
2023-01-26T21:53:48.061Z,38.91
2023-01-26T21:56:15.241Z,39.30
2023-01-26T21:58:51.656Z,39.12
2023-01-26T22:01:18.942Z,39.36
2023-01-26T22:03:46.609Z,39.13
2023-01-26T22:06:13.567Z,39.45
2023-01-26T22:08:40.721Z,39.03
2023-01-26T22:11:07.749Z,39.09
2023-01-26T22:13:36.402Z,39.26
2023-01-26T22:16:04.638Z,39.22
2023-01-26T22:18:31.827Z,39.30
2023-01-26T22:20:58.891Z,39.18
2023-01-26T22:23:26.187Z,39.17
2023-01-26T22:25:53.219Z,39.45
2023-01-26T22:28:20.191Z,39.36
2023-01-26T22:30:47.259Z,39.96
2023-01-26T22:33:14.332Z,40.00
2023-01-26T22:35:41.386Z,39.61
2023-01-26T22:38:08.383Z,39.77
2023-01-26T22:40:37.572Z,39.83
2023-01-26T22:43:04.646Z,39.43
2023-01-26T22:45:31.702Z,39.66
2023-01-26T22:47:58.750Z,39.54
2023-01-26T22:50:25.869Z,39.32
2023-01-26T22:52:52.827Z,39.24
2023-01-26T22:55:19.694Z,39.49
2023-01-26T22:57:46.832Z,39.12
2023-01-26T23:00:14.514Z,39.46
2023-01-26T23:02:41.684Z,39.41
2023-01-26T23:05:09.081Z,39.84
2023-01-26T23:07:36.116Z,39.30
2023-01-26T23:10:03.201Z,39.72
2023-01-26T23:12:30.849Z,39.79
2023-01-26T23:14:58.132Z,39.36
2023-01-26T23:17:25.208Z,39.87
2023-01-26T23:19:54.064Z,40.00
2023-01-26T23:22:25.005Z,39.75
2023-01-26T23:25:01.787Z,39.78
2023-01-26T23:27:28.741Z,39.53
2023-01-26T23:29:55.872Z,39.70
2023-01-26T23:32:23.128Z,39.72
2023-01-26T23:34:50.246Z,39.53
2023-01-26T23:37:17.193Z,39.92
2023-01-26T23:39:44.492Z,39.64
2023-01-26T23:42:11.482Z,39.72
2023-01-26T23:44:38.662Z,39.90
2023-01-26T23:47:05.920Z,39.80
2023-01-26T23:49:33.131Z,39.48
2023-01-26T23:52:00.007Z,39.42
2023-01-26T23:54:27.019Z,39.52
2023-01-26T23:56:54.042Z,39.86
2023-01-26T23:59:21.339Z,39.55
